sensor_id;sensor_type;location;lat;lon;timestamp;P1;durP1;ratioP1;P2;durP2;ratioP2
37169;SDS011;23062;13.952;100.608;2022-08-19T00:01:47;9.00;;;6.00;;
37169;SDS011;23062;13.952;100.608;2022-08-19T00:06:40;9.00;;;6.00;;
37169;SDS011;23062;13.952;100.608;2022-08-19T00:11:30;10.00;;;7.00;;
37169;SDS011;23062;13.952;100.608;2022-08-19T00:16:20;9.00;;;5.20;;
37169;SDS011;23062;13.952;100.608;2022-08-19T00:21:10;10.00;;;7.00;;
37169;SDS011;23062;13.952;100.608;2022-08-19T00:26:00;11.00;;;8.00;;
37169;SDS011;23062;13.952;100.608;2022-08-19T00:30:51;9.00;;;6.00;;
37169;SDS011;23062;13.952;100.608;2022-08-19T00:35:40;8.00;;;6.00;;
37169;SDS011;23062;13.952;100.608;2022-08-19T00:40:30;6.00;;;4.00;;
37169;SDS011;23062;13.952;100.608;2022-08-19T00:45:21;5.00;;;3.00;;
37169;SDS011;23062;13.952;100.608;2022-08-19T00:50:17;8.00;;;4.67;;
37169;SDS011;23062;13.952;100.608;2022-08-19T00:55:07;9.00;;;5.60;;
37169;SDS011;23062;13.952;100.608;2022-08-19T00:59:58;10.00;;;7.00;;
37169;SDS011;23062;13.952;100.608;2022-08-19T01:04:48;6.00;;;4.00;;
37169;SDS011;23062;13.952;100.608;2022-08-19T01:09:38;8.00;;;6.00;;
37169;SDS011;23062;13.952;100.608;2022-08-19T01:14:28;6.00;;;4.00;;
37169;SDS011;23062;13.952;100.608;2022-08-19T01:19:21;7.00;;;5.00;;
37169;SDS011;23062;13.952;100.608;2022-08-19T01:24:11;5.00;;;3.00;;
37169;SDS011;23062;13.952;100.608;2022-08-19T01:29:01;5.00;;;3.00;;
37169;SDS011;23062;13.952;100.608;2022-08-19T01:33:51;3.00;;;2.00;;
37169;SDS011;23062;13.952;100.608;2022-08-19T01:38:42;3.00;;;2.00;;
37169;SDS011;23062;13.952;100.608;2022-08-19T01:43:34;5.00;;;3.00;;
37169;SDS011;23062;13.952;100.608;2022-08-19T01:48:24;8.00;;;5.00;;
37169;SDS011;23062;13.952;100.608;2022-08-19T01:53:15;8.00;;;5.00;;
37169;SDS011;23062;13.952;100.608;2022-08-19T01:58:04;6.00;;;4.00;;
37169;SDS011;23062;13.952;100.608;2022-08-19T02:02:56;5.00;;;3.00;;
37169;SDS011;23062;13.952;100.608;2022-08-19T02:07:45;5.00;;;3.00;;
37169;SDS011;23062;13.952;100.608;2022-08-19T02:12:36;3.00;;;2.00;;
37169;SDS011;23062;13.952;100.608;2022-08-19T02:17:27;5.00;;;3.00;;
37169;SDS011;23062;13.952;100.608;2022-08-19T02:22:17;5.00;;;3.00;;
37169;SDS011;23062;13.952;100.608;2022-08-19T02:27:07;5.00;;;3.00;;
37169;SDS011;23062;13.952;100.608;2022-08-19T02:31:56;4.00;;;2.00;;
37169;SDS011;23062;13.952;100.608;2022-08-19T02:36:46;3.00;;;1.00;;
37169;SDS011;23062;13.952;100.608;2022-08-19T02:41:35;6.00;;;4.00;;
37169;SDS011;23062;13.952;100.608;2022-08-19T02:46:25;3.00;;;2.00;;
37169;SDS011;23062;13.952;100.608;2022-08-19T02:51:20;6.00;;;4.00;;
37169;SDS011;23062;13.952;100.608;2022-08-19T02:56:10;5.00;;;3.00;;
37169;SDS011;23062;13.952;100.608;2022-08-19T03:00:59;4.00;;;2.00;;
37169;SDS011;23062;13.952;100.608;2022-08-19T03:05:51;5.00;;;3.00;;
37169;SDS011;23062;13.952;100.608;2022-08-19T03:10:45;2.00;;;1.00;;
37169;SDS011;23062;13.952;100.608;2022-08-19T03:15:34;3.00;;;2.00;;
37169;SDS011;23062;13.952;100.608;2022-08-19T03:20:24;4.00;;;2.00;;
37169;SDS011;23062;13.952;100.608;2022-08-19T03:25:13;5.00;;;3.00;;
37169;SDS011;23062;13.952;100.608;2022-08-19T03:30:05;4.00;;;2.00;;
37169;SDS011;23062;13.952;100.608;2022-08-19T03:34:56;2.00;;;1.00;;
37169;SDS011;23062;13.952;100.608;2022-08-19T03:39:47;2.00;;;1.00;;
37169;SDS011;23062;13.952;100.608;2022-08-19T03:44:36;3.00;;;2.00;;
37169;SDS011;23062;13.952;100.608;2022-08-19T03:49:28;6.00;;;4.00;;
37169;SDS011;23062;13.952;100.608;2022-08-19T03:54:19;3.00;;;2.00;;
37169;SDS011;23062;13.952;100.608;2022-08-19T03:59:15;3.00;;;2.00;;
37169;SDS011;23062;13.952;100.608;2022-08-19T04:04:02;4.00;;;2.00;;
37169;SDS011;23062;13.952;100.608;2022-08-19T04:08:52;4.00;;;2.00;;
37169;SDS011;23062;13.952;100.608;2022-08-19T04:13:44;10.00;;;7.00;;
37169;SDS011;23062;13.952;100.608;2022-08-19T04:18:33;6.00;;;4.00;;
37169;SDS011;23062;13.952;100.608;2022-08-19T04:23:23;6.00;;;4.00;;
37169;SDS011;23062;13.952;100.608;2022-08-19T04:28:14;4.00;;;1.87;;
37169;SDS011;23062;13.952;100.608;2022-08-19T04:33:05;5.00;;;3.00;;
37169;SDS011;23062;13.952;100.608;2022-08-19T04:37:55;6.00;;;4.00;;
37169;SDS011;23062;13.952;100.608;2022-08-19T04:42:44;4.00;;;3.00;;
37169;SDS011;23062;13.952;100.608;2022-08-19T04:47:34;4.00;;;2.00;;
37169;SDS011;23062;13.952;100.608;2022-08-19T04:52:29;3.00;;;2.00;;
37169;SDS011;23062;13.952;100.608;2022-08-19T04:57:18;4.00;;;2.00;;
37169;SDS011;23062;13.952;100.608;2022-08-19T05:02:08;7.00;;;4.00;;
37169;SDS011;23062;13.952;100.608;2022-08-19T05:06:58;5.00;;;3.00;;
37169;SDS011;23062;13.952;100.608;2022-08-19T05:11:48;6.00;;;4.00;;
37169;SDS011;23062;13.952;100.608;2022-08-19T05:16:39;5.00;;;3.00;;
37169;SDS011;23062;13.952;100.608;2022-08-19T05:21:29;3.00;;;2.00;;
37169;SDS011;23062;13.952;100.608;2022-08-19T05:26:39;3.00;;;2.00;;
37169;SDS011;23062;13.952;100.608;2022-08-19T05:31:27;2.00;;;1.00;;
37169;SDS011;23062;13.952;100.608;2022-08-19T05:36:17;2.00;;;1.00;;
37169;SDS011;23062;13.952;100.608;2022-08-19T05:41:10;3.00;;;2.00;;
37169;SDS011;23062;13.952;100.608;2022-08-19T05:46:01;3.00;;;1.00;;
37169;SDS011;23062;13.952;100.608;2022-08-19T05:50:52;4.00;;;2.00;;
37169;SDS011;23062;13.952;100.608;2022-08-19T05:55:41;8.00;;;5.00;;
37169;SDS011;23062;13.952;100.608;2022-08-19T06:00:30;5.00;;;3.00;;
37169;SDS011;23062;13.952;100.608;2022-08-19T06:05:19;4.00;;;2.00;;
37169;SDS011;23062;13.952;100.608;2022-08-19T06:10:09;3.00;;;1.73;;
37169;SDS011;23062;13.952;100.608;2022-08-19T06:15:00;6.00;;;4.00;;
37169;SDS011;23062;13.952;100.608;2022-08-19T06:19:51;6.00;;;4.00;;
37169;SDS011;23062;13.952;100.608;2022-08-19T06:24:41;5.00;;;2.80;;
37169;SDS011;23062;13.952;100.608;2022-08-19T06:29:31;3.00;;;2.00;;
37169;SDS011;23062;13.952;100.608;2022-08-19T06:34:23;4.00;;;2.00;;
37169;SDS011;23062;13.952;100.608;2022-08-19T06:39:15;6.00;;;4.00;;
37169;SDS011;23062;13.952;100.608;2022-08-19T06:44:07;5.00;;;2.80;;
37169;SDS011;23062;13.952;100.608;2022-08-19T06:48:56;3.00;;;2.00;;
37169;SDS011;23062;13.952;100.608;2022-08-19T06:53:46;3.00;;;2.00;;
37169;SDS011;23062;13.952;100.608;2022-08-19T06:58:37;3.00;;;2.00;;
37169;SDS011;23062;13.952;100.608;2022-08-19T07:03:30;4.00;;;2.00;;
37169;SDS011;23062;13.952;100.608;2022-08-19T07:08:18;4.00;;;3.00;;
37169;SDS011;23062;13.952;100.608;2022-08-19T07:13:08;5.00;;;3.00;;
37169;SDS011;23062;13.952;100.608;2022-08-19T07:17:58;7.00;;;5.00;;
37169;SDS011;23062;13.952;100.608;2022-08-19T07:22:49;4.00;;;3.00;;
37169;SDS011;23062;13.952;100.608;2022-08-19T07:27:39;7.00;;;5.00;;
37169;SDS011;23062;13.952;100.608;2022-08-19T07:32:28;10.00;;;7.00;;
37169;SDS011;23062;13.952;100.608;2022-08-19T07:37:17;13.00;;;9.00;;
37169;SDS011;23062;13.952;100.608;2022-08-19T07:42:08;8.00;;;5.00;;
37169;SDS011;23062;13.952;100.608;2022-08-19T07:47:00;7.00;;;5.00;;
37169;SDS011;23062;13.952;100.608;2022-08-19T07:51:52;6.00;;;4.00;;
37169;SDS011;23062;13.952;100.608;2022-08-19T07:56:42;6.00;;;4.00;;
37169;SDS011;23062;13.952;100.608;2022-08-19T08:01:32;7.00;;;4.00;;
37169;SDS011;23062;13.952;100.608;2022-08-19T08:06:23;6.00;;;4.00;;
37169;SDS011;23062;13.952;100.608;2022-08-19T08:11:30;9.00;;;6.00;;
37169;SDS011;23062;13.952;100.608;2022-08-19T08:16:19;6.00;;;4.00;;
37169;SDS011;23062;13.952;100.608;2022-08-19T08:21:08;7.00;;;5.00;;
37169;SDS011;23062;13.952;100.608;2022-08-19T08:25:58;8.00;;;5.00;;
37169;SDS011;23062;13.952;100.608;2022-08-19T08:30:48;8.00;;;6.00;;
37169;SDS011;23062;13.952;100.608;2022-08-19T08:35:39;9.00;;;6.00;;
37169;SDS011;23062;13.952;100.608;2022-08-19T08:40:38;8.00;;;6.00;;
37169;SDS011;23062;13.952;100.608;2022-08-19T08:45:43;5.00;;;3.00;;
37169;SDS011;23062;13.952;100.608;2022-08-19T08:50:34;8.00;;;5.00;;
37169;SDS011;23062;13.952;100.608;2022-08-19T08:55:27;5.00;;;3.00;;
37169;SDS011;23062;13.952;100.608;2022-08-19T09:00:19;5.00;;;3.00;;
37169;SDS011;23062;13.952;100.608;2022-08-19T09:05:10;6.00;;;4.00;;
37169;SDS011;23062;13.952;100.608;2022-08-19T09:15:29;5.00;;;3.00;;
37169;SDS011;23062;13.952;100.608;2022-08-19T09:20:23;5.00;;;3.00;;
37169;SDS011;23062;13.952;100.608;2022-08-19T09:25:15;6.00;;;4.00;;
37169;SDS011;23062;13.952;100.608;2022-08-19T09:30:09;6.00;;;4.00;;
37169;SDS011;23062;13.952;100.608;2022-08-19T09:35:00;7.00;;;5.00;;
37169;SDS011;23062;13.952;100.608;2022-08-19T09:39:50;5.00;;;3.00;;
37169;SDS011;23062;13.952;100.608;2022-08-19T09:44:40;7.00;;;5.00;;
37169;SDS011;23062;13.952;100.608;2022-08-19T09:49:30;9.00;;;6.00;;
37169;SDS011;23062;13.952;100.608;2022-08-19T09:54:20;7.00;;;5.00;;
37169;SDS011;23062;13.952;100.608;2022-08-19T09:59:11;8.00;;;5.00;;
37169;SDS011;23062;13.952;100.608;2022-08-19T10:04:00;7.00;;;5.00;;
37169;SDS011;23062;13.952;100.608;2022-08-19T10:08:51;9.00;;;6.00;;
37169;SDS011;23062;13.952;100.608;2022-08-19T10:13:41;6.00;;;4.00;;
37169;SDS011;23062;13.952;100.608;2022-08-19T10:18:32;6.00;;;4.00;;
37169;SDS011;23062;13.952;100.608;2022-08-19T10:23:21;9.00;;;6.00;;
37169;SDS011;23062;13.952;100.608;2022-08-19T10:28:12;7.00;;;4.00;;
37169;SDS011;23062;13.952;100.608;2022-08-19T10:33:01;8.00;;;6.00;;
37169;SDS011;23062;13.952;100.608;2022-08-19T10:37:51;7.00;;;5.00;;
37169;SDS011;23062;13.952;100.608;2022-08-19T10:42:40;6.00;;;4.00;;
37169;SDS011;23062;13.952;100.608;2022-08-19T10:47:30;7.00;;;5.00;;
37169;SDS011;23062;13.952;100.608;2022-08-19T10:52:20;7.00;;;5.00;;
37169;SDS011;23062;13.952;100.608;2022-08-19T10:57:21;6.00;;;4.00;;
37169;SDS011;23062;13.952;100.608;2022-08-19T11:02:12;7.00;;;4.00;;
37169;SDS011;23062;13.952;100.608;2022-08-19T11:07:02;6.00;;;4.00;;
37169;SDS011;23062;13.952;100.608;2022-08-19T11:11:52;5.00;;;4.00;;
37169;SDS011;23062;13.952;100.608;2022-08-19T11:16:43;6.00;;;4.00;;
37169;SDS011;23062;13.952;100.608;2022-08-19T11:21:33;6.00;;;4.00;;
37169;SDS011;23062;13.952;100.608;2022-08-19T11:26:24;5.00;;;3.00;;
37169;SDS011;23062;13.952;100.608;2022-08-19T11:31:16;5.00;;;3.00;;
37169;SDS011;23062;13.952;100.608;2022-08-19T11:36:07;2.00;;;0.93;;
37169;SDS011;23062;13.952;100.608;2022-08-19T11:40:58;4.00;;;2.00;;
37169;SDS011;23062;13.952;100.608;2022-08-19T11:45:49;2.00;;;1.00;;
37169;SDS011;23062;13.952;100.608;2022-08-19T11:50:38;3.00;;;2.00;;
37169;SDS011;23062;13.952;100.608;2022-08-19T11:55:29;2.00;;;0.93;;
37169;SDS011;23062;13.952;100.608;2022-08-19T12:00:19;2.00;;;1.00;;
37169;SDS011;23062;13.952;100.608;2022-08-19T12:05:08;2.00;;;1.00;;
37169;SDS011;23062;13.952;100.608;2022-08-19T12:09:58;2.00;;;1.00;;
37169;SDS011;23062;13.952;100.608;2022-08-19T12:14:49;3.00;;;2.00;;
37169;SDS011;23062;13.952;100.608;2022-08-19T12:19:40;3.00;;;1.87;;
37169;SDS011;23062;13.952;100.608;2022-08-19T12:24:33;3.00;;;2.00;;
37169;SDS011;23062;13.952;100.608;2022-08-19T12:29:23;1.00;;;0.00;;
37169;SDS011;23062;13.952;100.608;2022-08-19T12:34:14;2.00;;;1.00;;
37169;SDS011;23062;13.952;100.608;2022-08-19T12:39:04;1.00;;;0.00;;
37169;SDS011;23062;13.952;100.608;2022-08-19T12:43:55;2.00;;;1.00;;
37169;SDS011;23062;13.952;100.608;2022-08-19T12:48:44;2.00;;;1.00;;
37169;SDS011;23062;13.952;100.608;2022-08-19T12:53:34;2.00;;;1.00;;
37169;SDS011;23062;13.952;100.608;2022-08-19T12:58:24;2.00;;;1.00;;
37169;SDS011;23062;13.952;100.608;2022-08-19T13:03:15;2.00;;;1.00;;
37169;SDS011;23062;13.952;100.608;2022-08-19T13:08:05;1.00;;;0.00;;
37169;SDS011;23062;13.952;100.608;2022-08-19T13:12:54;2.00;;;1.00;;
37169;SDS011;23062;13.952;100.608;2022-08-19T13:17:49;3.00;;;2.00;;
37169;SDS011;23062;13.952;100.608;2022-08-19T13:22:38;4.00;;;2.00;;
37169;SDS011;23062;13.952;100.608;2022-08-19T13:27:30;10.00;;;7.00;;
37169;SDS011;23062;13.952;100.608;2022-08-19T13:32:19;10.00;;;7.00;;
37169;SDS011;23062;13.952;100.608;2022-08-19T13:37:25;6.00;;;4.00;;
37169;SDS011;23062;13.952;100.608;2022-08-19T13:42:31;7.00;;;5.00;;
37169;SDS011;23062;13.952;100.608;2022-08-19T13:47:21;7.00;;;5.00;;
37169;SDS011;23062;13.952;100.608;2022-08-19T13:52:11;7.00;;;4.00;;
37169;SDS011;23062;13.952;100.608;2022-08-19T13:57:01;7.00;;;3.73;;
37169;SDS011;23062;13.952;100.608;2022-08-19T14:01:50;7.00;;;4.00;;
37169;SDS011;23062;13.952;100.608;2022-08-19T14:06:40;5.00;;;4.00;;
37169;SDS011;23062;13.952;100.608;2022-08-19T14:11:29;7.00;;;5.00;;
37169;SDS011;23062;13.952;100.608;2022-08-19T14:16:19;6.00;;;4.00;;
37169;SDS011;23062;13.952;100.608;2022-08-19T14:21:13;5.00;;;3.00;;
37169;SDS011;23062;13.952;100.608;2022-08-19T14:26:07;8.00;;;5.00;;
37169;SDS011;23062;13.952;100.608;2022-08-19T14:30:57;6.00;;;4.00;;
37169;SDS011;23062;13.952;100.608;2022-08-19T14:35:46;6.00;;;4.00;;
37169;SDS011;23062;13.952;100.608;2022-08-19T14:40:38;5.00;;;3.00;;
37169;SDS011;23062;13.952;100.608;2022-08-19T14:45:28;7.00;;;5.00;;
37169;SDS011;23062;13.952;100.608;2022-08-19T14:50:20;5.00;;;3.00;;
37169;SDS011;23062;13.952;100.608;2022-08-19T14:55:11;6.00;;;4.00;;
37169;SDS011;23062;13.952;100.608;2022-08-19T15:00:03;6.00;;;4.00;;
37169;SDS011;23062;13.952;100.608;2022-08-19T15:04:54;5.00;;;3.00;;
37169;SDS011;23062;13.952;100.608;2022-08-19T15:09:43;6.00;;;4.00;;
37169;SDS011;23062;13.952;100.608;2022-08-19T15:14:35;5.00;;;3.00;;
37169;SDS011;23062;13.952;100.608;2022-08-19T15:19:26;6.00;;;4.00;;
37169;SDS011;23062;13.952;100.608;2022-08-19T15:24:16;5.00;;;3.00;;
37169;SDS011;23062;13.952;100.608;2022-08-19T15:29:06;5.00;;;3.00;;
37169;SDS011;23062;13.952;100.608;2022-08-19T15:33:56;6.00;;;4.00;;
37169;SDS011;23062;13.952;100.608;2022-08-19T15:38:45;7.00;;;5.00;;
37169;SDS011;23062;13.952;100.608;2022-08-19T15:43:35;6.00;;;4.00;;
37169;SDS011;23062;13.952;100.608;2022-08-19T15:48:27;8.00;;;6.00;;
37169;SDS011;23062;13.952;100.608;2022-08-19T15:53:16;7.00;;;5.00;;
37169;SDS011;23062;13.952;100.608;2022-08-19T15:58:10;8.00;;;4.67;;
37169;SDS011;23062;13.952;100.608;2022-08-19T16:03:18;8.00;;;5.00;;
37169;SDS011;23062;13.952;100.608;2022-08-19T16:08:24;9.00;;;6.00;;
37169;SDS011;23062;13.952;100.608;2022-08-19T16:13:14;8.00;;;5.00;;
37169;SDS011;23062;13.952;100.608;2022-08-19T16:18:04;8.00;;;5.00;;
37169;SDS011;23062;13.952;100.608;2022-08-19T16:22:54;8.00;;;5.00;;
37169;SDS011;23062;13.952;100.608;2022-08-19T16:27:44;9.00;;;6.00;;
37169;SDS011;23062;13.952;100.608;2022-08-19T16:32:34;7.00;;;5.00;;
37169;SDS011;23062;13.952;100.608;2022-08-19T16:37:24;8.00;;;5.00;;
37169;SDS011;23062;13.952;100.608;2022-08-19T16:42:14;8.00;;;5.00;;
37169;SDS011;23062;13.952;100.608;2022-08-19T16:47:04;7.00;;;4.67;;
37169;SDS011;23062;13.952;100.608;2022-08-19T16:51:54;7.00;;;5.00;;
37169;SDS011;23062;13.952;100.608;2022-08-19T16:56:43;7.00;;;5.00;;
37169;SDS011;23062;13.952;100.608;2022-08-19T17:01:34;7.00;;;5.00;;
37169;SDS011;23062;13.952;100.608;2022-08-19T17:06:25;6.00;;;4.00;;
37169;SDS011;23062;13.952;100.608;2022-08-19T17:11:16;5.00;;;3.00;;
37169;SDS011;23062;13.952;100.608;2022-08-19T17:16:06;6.00;;;4.00;;
37169;SDS011;23062;13.952;100.608;2022-08-19T17:20:56;7.00;;;4.00;;
37169;SDS011;23062;13.952;100.608;2022-08-19T17:25:47;7.00;;;4.00;;
37169;SDS011;23062;13.952;100.608;2022-08-19T17:30:38;4.00;;;3.00;;
37169;SDS011;23062;13.952;100.608;2022-08-19T17:35:28;5.00;;;3.00;;
37169;SDS011;23062;13.952;100.608;2022-08-19T17:40:18;6.00;;;4.00;;
37169;SDS011;23062;13.952;100.608;2022-08-19T17:45:08;4.00;;;2.00;;
37169;SDS011;23062;13.952;100.608;2022-08-19T17:49:59;6.00;;;4.00;;
37169;SDS011;23062;13.952;100.608;2022-08-19T17:54:48;8.00;;;5.00;;
37169;SDS011;23062;13.952;100.608;2022-08-19T17:59:39;6.00;;;4.00;;
37169;SDS011;23062;13.952;100.608;2022-08-19T18:04:29;4.00;;;3.00;;
37169;SDS011;23062;13.952;100.608;2022-08-19T18:09:19;3.00;;;2.00;;
37169;SDS011;23062;13.952;100.608;2022-08-19T18:14:10;4.00;;;2.00;;
37169;SDS011;23062;13.952;100.608;2022-08-19T18:18:59;3.00;;;2.00;;
37169;SDS011;23062;13.952;100.608;2022-08-19T18:23:49;4.00;;;2.00;;
37169;SDS011;23062;13.952;100.608;2022-08-19T18:28:38;5.00;;;3.00;;
37169;SDS011;23062;13.952;100.608;2022-08-19T18:33:28;4.00;;;2.00;;
37169;SDS011;23062;13.952;100.608;2022-08-19T18:38:19;5.00;;;3.00;;
37169;SDS011;23062;13.952;100.608;2022-08-19T18:43:26;2.00;;;1.00;;
37169;SDS011;23062;13.952;100.608;2022-08-19T18:48:26;3.00;;;2.00;;
37169;SDS011;23062;13.952;100.608;2022-08-19T18:53:34;4.00;;;2.00;;
37169;SDS011;23062;13.952;100.608;2022-08-19T18:58:26;3.00;;;2.00;;
37169;SDS011;23062;13.952;100.608;2022-08-19T19:03:19;5.00;;;3.00;;
37169;SDS011;23062;13.952;100.608;2022-08-19T19:08:09;3.00;;;2.00;;
37169;SDS011;23062;13.952;100.608;2022-08-19T19:13:00;2.00;;;1.00;;
37169;SDS011;23062;13.952;100.608;2022-08-19T19:17:50;3.00;;;2.00;;
37169;SDS011;23062;13.952;100.608;2022-08-19T19:22:40;3.00;;;2.00;;
37169;SDS011;23062;13.952;100.608;2022-08-19T19:27:29;3.00;;;1.00;;
37169;SDS011;23062;13.952;100.608;2022-08-19T19:32:20;2.00;;;1.00;;
37169;SDS011;23062;13.952;100.608;2022-08-19T19:37:15;2.00;;;1.00;;
37169;SDS011;23062;13.952;100.608;2022-08-19T19:42:10;6.00;;;4.00;;
37169;SDS011;23062;13.952;100.608;2022-08-19T19:47:01;2.00;;;1.00;;
37169;SDS011;23062;13.952;100.608;2022-08-19T19:51:51;4.00;;;2.00;;
37169;SDS011;23062;13.952;100.608;2022-08-19T19:56:41;2.00;;;1.00;;
37169;SDS011;23062;13.952;100.608;2022-08-19T20:01:31;3.00;;;2.00;;
37169;SDS011;23062;13.952;100.608;2022-08-19T20:06:21;4.00;;;2.00;;
37169;SDS011;23062;13.952;100.608;2022-08-19T20:11:24;2.00;;;1.00;;
37169;SDS011;23062;13.952;100.608;2022-08-19T20:16:18;3.00;;;2.00;;
37169;SDS011;23062;13.952;100.608;2022-08-19T20:21:15;4.00;;;2.00;;
37169;SDS011;23062;13.952;100.608;2022-08-19T20:26:05;4.00;;;2.00;;
37169;SDS011;23062;13.952;100.608;2022-08-19T20:30:55;2.00;;;1.00;;
37169;SDS011;23062;13.952;100.608;2022-08-19T20:35:45;4.00;;;2.00;;
37169;SDS011;23062;13.952;100.608;2022-08-19T20:40:35;4.00;;;2.00;;
37169;SDS011;23062;13.952;100.608;2022-08-19T20:45:25;2.00;;;1.00;;
37169;SDS011;23062;13.952;100.608;2022-08-19T20:50:15;2.00;;;1.00;;
37169;SDS011;23062;13.952;100.608;2022-08-19T20:55:06;2.00;;;1.00;;
37169;SDS011;23062;13.952;100.608;2022-08-19T20:59:56;4.00;;;3.00;;
37169;SDS011;23062;13.952;100.608;2022-08-19T21:04:46;2.00;;;1.00;;
37169;SDS011;23062;13.952;100.608;2022-08-19T21:09:35;3.00;;;2.00;;
37169;SDS011;23062;13.952;100.608;2022-08-19T21:14:25;4.00;;;3.00;;
37169;SDS011;23062;13.952;100.608;2022-08-19T21:19:15;2.00;;;1.00;;
37169;SDS011;23062;13.952;100.608;2022-08-19T21:24:05;4.00;;;2.00;;
37169;SDS011;23062;13.952;100.608;2022-08-19T21:28:55;3.00;;;1.00;;
37169;SDS011;23062;13.952;100.608;2022-08-19T21:33:45;2.00;;;1.00;;
37169;SDS011;23062;13.952;100.608;2022-08-19T21:38:35;3.00;;;2.00;;
37169;SDS011;23062;13.952;100.608;2022-08-19T21:43:25;5.00;;;3.00;;
37169;SDS011;23062;13.952;100.608;2022-08-19T21:48:14;2.00;;;1.00;;
37169;SDS011;23062;13.952;100.608;2022-08-19T21:53:05;4.00;;;2.00;;
37169;SDS011;23062;13.952;100.608;2022-08-19T21:57:54;2.00;;;1.00;;
37169;SDS011;23062;13.952;100.608;2022-08-19T22:02:47;2.00;;;0.93;;
37169;SDS011;23062;13.952;100.608;2022-08-19T22:07:37;2.00;;;1.00;;
37169;SDS011;23062;13.952;100.608;2022-08-19T22:12:29;3.00;;;2.00;;
37169;SDS011;23062;13.952;100.608;2022-08-19T22:17:21;2.00;;;0.93;;
37169;SDS011;23062;13.952;100.608;2022-08-19T22:22:13;3.00;;;2.00;;
37169;SDS011;23062;13.952;100.608;2022-08-19T22:27:13;2.00;;;1.00;;
37169;SDS011;23062;13.952;100.608;2022-08-19T22:32:03;4.00;;;2.00;;
37169;SDS011;23062;13.952;100.608;2022-08-19T22:36:53;4.00;;;2.00;;
37169;SDS011;23062;13.952;100.608;2022-08-19T22:41:43;2.00;;;1.00;;
37169;SDS011;23062;13.952;100.608;2022-08-19T22:46:33;2.00;;;1.00;;
37169;SDS011;23062;13.952;100.608;2022-08-19T22:51:23;2.00;;;1.00;;
37169;SDS011;23062;13.952;100.608;2022-08-19T22:56:39;4.00;;;3.00;;
37169;SDS011;23062;13.952;100.608;2022-08-19T23:01:29;2.00;;;1.00;;
37169;SDS011;23062;13.952;100.608;2022-08-19T23:06:18;3.00;;;2.00;;
37169;SDS011;23062;13.952;100.608;2022-08-19T23:11:09;3.00;;;2.00;;
37169;SDS011;23062;13.952;100.608;2022-08-19T23:15:59;5.00;;;3.00;;
37169;SDS011;23062;13.952;100.608;2022-08-19T23:20:48;2.00;;;1.00;;
37169;SDS011;23062;13.952;100.608;2022-08-19T23:25:40;2.00;;;1.00;;
37169;SDS011;23062;13.952;100.608;2022-08-19T23:30:32;4.00;;;2.00;;
37169;SDS011;23062;13.952;100.608;2022-08-19T23:35:24;3.00;;;2.00;;
37169;SDS011;23062;13.952;100.608;2022-08-19T23:40:14;3.00;;;2.00;;
37169;SDS011;23062;13.952;100.608;2022-08-19T23:45:06;3.00;;;2.00;;
37169;SDS011;23062;13.952;100.608;2022-08-19T23:49:56;3.00;;;2.00;;
37169;SDS011;23062;13.952;100.608;2022-08-19T23:54:46;6.00;;;4.00;;
37169;SDS011;23062;13.952;100.608;2022-08-19T23:59:36;3.00;;;2.00;;
